sensor_id;sensor_type;location;lat;lon;timestamp;P1;durP1;ratioP1;P2;durP2;ratioP2
82396;SDS011;72034;51.426;7.534;2024-02-26T00:00:14;2.97;;;2.67;;
82396;SDS011;72034;51.426;7.534;2024-02-26T00:02:40;2.43;;;2.23;;
82396;SDS011;72034;51.426;7.534;2024-02-26T00:05:09;2.55;;;2.33;;
82396;SDS011;72034;51.426;7.534;2024-02-26T00:07:49;2.78;;;1.88;;
82396;SDS011;72034;51.426;7.534;2024-02-26T00:10:21;2.97;;;1.92;;
82396;SDS011;72034;51.426;7.534;2024-02-26T00:12:49;2.93;;;2.03;;
82396;SDS011;72034;51.426;7.534;2024-02-26T00:15:15;3.00;;;1.70;;
82396;SDS011;72034;51.426;7.534;2024-02-26T00:17:45;2.50;;;1.90;;
82396;SDS011;72034;51.426;7.534;2024-02-26T00:20:10;2.80;;;1.70;;
82396;SDS011;72034;51.426;7.534;2024-02-26T00:22:50;2.37;;;1.77;;
82396;SDS011;72034;51.426;7.534;2024-02-26T00:25:21;3.15;;;2.05;;
82396;SDS011;72034;51.426;7.534;2024-02-26T00:27:49;2.17;;;1.67;;
82396;SDS011;72034;51.426;7.534;2024-02-26T00:30:32;1.97;;;1.63;;
82396;SDS011;72034;51.426;7.534;2024-02-26T00:33:04;2.30;;;1.67;;
82396;SDS011;72034;51.426;7.534;2024-02-26T00:35:38;2.80;;;1.93;;
82396;SDS011;72034;51.426;7.534;2024-02-26T00:38:03;2.00;;;1.80;;
82396;SDS011;72034;51.426;7.534;2024-02-26T00:40:34;2.67;;;1.87;;
82396;SDS011;72034;51.426;7.534;2024-02-26T00:43:00;2.10;;;1.60;;
82396;SDS011;72034;51.426;7.534;2024-02-26T00:45:36;2.17;;;1.70;;
82396;SDS011;72034;51.426;7.534;2024-02-26T00:48:07;2.80;;;2.00;;
82396;SDS011;72034;51.426;7.534;2024-02-26T00:50:35;2.20;;;1.92;;
82396;SDS011;72034;51.426;7.534;2024-02-26T00:53:12;1.70;;;1.60;;
82396;SDS011;72034;51.426;7.534;2024-02-26T00:55:37;2.00;;;1.67;;
82396;SDS011;72034;51.426;7.534;2024-02-26T00:58:05;2.93;;;1.60;;
82396;SDS011;72034;51.426;7.534;2024-02-26T01:00:33;3.30;;;1.80;;
82396;SDS011;72034;51.426;7.534;2024-02-26T01:03:01;2.33;;;2.00;;
82396;SDS011;72034;51.426;7.534;2024-02-26T01:05:30;2.97;;;1.80;;
82396;SDS011;72034;51.426;7.534;2024-02-26T01:08:01;2.30;;;1.60;;
82396;SDS011;72034;51.426;7.534;2024-02-26T01:10:43;3.00;;;1.63;;
82396;SDS011;72034;51.426;7.534;2024-02-26T01:13:17;2.17;;;1.60;;
82396;SDS011;72034;51.426;7.534;2024-02-26T01:15:52;1.70;;;1.50;;
82396;SDS011;72034;51.426;7.534;2024-02-26T01:18:22;2.13;;;1.65;;
82396;SDS011;72034;51.426;7.534;2024-02-26T01:20:51;3.10;;;2.00;;
82396;SDS011;72034;51.426;7.534;2024-02-26T01:23:18;1.93;;;1.73;;
82396;SDS011;72034;51.426;7.534;2024-02-26T01:25:52;1.73;;;1.60;;
82396;SDS011;72034;51.426;7.534;2024-02-26T01:28:17;1.90;;;1.70;;
82396;SDS011;72034;51.426;7.534;2024-02-26T01:30:53;2.13;;;1.53;;
82396;SDS011;72034;51.426;7.534;2024-02-26T01:33:27;1.60;;;1.42;;
82396;SDS011;72034;51.426;7.534;2024-02-26T01:35:58;2.20;;;1.67;;
82396;SDS011;72034;51.426;7.534;2024-02-26T01:38:23;2.80;;;1.70;;
82396;SDS011;72034;51.426;7.534;2024-02-26T01:40:54;1.97;;;1.77;;
82396;SDS011;72034;51.426;7.534;2024-02-26T01:43:28;2.55;;;1.80;;
82396;SDS011;72034;51.426;7.534;2024-02-26T01:45:57;2.17;;;1.60;;
82396;SDS011;72034;51.426;7.534;2024-02-26T01:48:22;2.25;;;1.67;;
82396;SDS011;72034;51.426;7.534;2024-02-26T01:50:50;2.30;;;1.88;;
82396;SDS011;72034;51.426;7.534;2024-02-26T01:53:16;2.65;;;1.73;;
82396;SDS011;72034;51.426;7.534;2024-02-26T01:55:45;2.10;;;1.70;;
82396;SDS011;72034;51.426;7.534;2024-02-26T01:58:16;2.13;;;1.67;;
82396;SDS011;72034;51.426;7.534;2024-02-26T02:00:44;2.03;;;1.80;;
82396;SDS011;72034;51.426;7.534;2024-02-26T02:03:09;1.83;;;1.60;;
82396;SDS011;72034;51.426;7.534;2024-02-26T02:05:45;2.03;;;1.70;;
82396;SDS011;72034;51.426;7.534;2024-02-26T02:08:16;2.00;;;1.37;;
82396;SDS011;72034;51.426;7.534;2024-02-26T02:10:53;2.03;;;1.70;;
82396;SDS011;72034;51.426;7.534;2024-02-26T02:13:26;2.22;;;1.65;;
82396;SDS011;72034;51.426;7.534;2024-02-26T02:15:52;3.33;;;1.90;;
82396;SDS011;72034;51.426;7.534;2024-02-26T02:18:20;2.33;;;1.70;;
82396;SDS011;72034;51.426;7.534;2024-02-26T02:20:54;3.22;;;1.85;;
82396;SDS011;72034;51.426;7.534;2024-02-26T02:23:24;1.90;;;1.73;;
82396;SDS011;72034;51.426;7.534;2024-02-26T02:25:50;2.37;;;1.87;;
82396;SDS011;72034;51.426;7.534;2024-02-26T02:28:17;3.08;;;1.80;;
82396;SDS011;72034;51.426;7.534;2024-02-26T02:30:55;2.53;;;1.85;;
82396;SDS011;72034;51.426;7.534;2024-02-26T02:33:32;3.53;;;1.90;;
82396;SDS011;72034;51.426;7.534;2024-02-26T02:36:02;2.78;;;2.10;;
82396;SDS011;72034;51.426;7.534;2024-02-26T02:38:36;2.75;;;1.95;;
82396;SDS011;72034;51.426;7.534;2024-02-26T02:41:02;2.47;;;2.00;;
82396;SDS011;72034;51.426;7.534;2024-02-26T02:43:28;3.58;;;1.90;;
82396;SDS011;72034;51.426;7.534;2024-02-26T02:45:56;2.20;;;1.80;;
82396;SDS011;72034;51.426;7.534;2024-02-26T02:48:27;2.58;;;1.90;;
82396;SDS011;72034;51.426;7.534;2024-02-26T02:50:58;2.38;;;1.92;;
82396;SDS011;72034;51.426;7.534;2024-02-26T02:53:26;2.15;;;1.70;;
82396;SDS011;72034;51.426;7.534;2024-02-26T02:55:51;2.13;;;1.92;;
82396;SDS011;72034;51.426;7.534;2024-02-26T02:58:17;2.10;;;1.80;;
82396;SDS011;72034;51.426;7.534;2024-02-26T03:00:42;2.30;;;2.10;;
82396;SDS011;72034;51.426;7.534;2024-02-26T03:03:10;2.95;;;1.98;;
82396;SDS011;72034;51.426;7.534;2024-02-26T03:05:39;2.20;;;1.80;;
82396;SDS011;72034;51.426;7.534;2024-02-26T03:10:44;2.40;;;2.00;;
82396;SDS011;72034;51.426;7.534;2024-02-26T03:13:09;1.63;;;1.52;;
82396;SDS011;72034;51.426;7.534;2024-02-26T03:15:49;2.05;;;1.70;;
82396;SDS011;72034;51.426;7.534;2024-02-26T03:18:14;2.47;;;2.03;;
82396;SDS011;72034;51.426;7.534;2024-02-26T03:20:40;1.83;;;1.70;;
82396;SDS011;72034;51.426;7.534;2024-02-26T03:23:08;3.40;;;2.43;;
82396;SDS011;72034;51.426;7.534;2024-02-26T03:28:31;3.67;;;2.10;;
82396;SDS011;72034;51.426;7.534;2024-02-26T03:31:07;4.57;;;2.40;;
82396;SDS011;72034;51.426;7.534;2024-02-26T03:33:41;3.35;;;2.60;;
82396;SDS011;72034;51.426;7.534;2024-02-26T03:36:34;3.10;;;2.13;;
82396;SDS011;72034;51.426;7.534;2024-02-26T03:39:18;2.97;;;2.63;;
82396;SDS011;72034;51.426;7.534;2024-02-26T03:41:55;2.75;;;2.45;;
82396;SDS011;72034;51.426;7.534;2024-02-26T03:44:34;3.50;;;2.80;;
82396;SDS011;72034;51.426;7.534;2024-02-26T03:47:11;3.67;;;2.97;;
82396;SDS011;72034;51.426;7.534;2024-02-26T03:49:56;3.10;;;2.80;;
82396;SDS011;72034;51.426;7.534;2024-02-26T03:52:33;4.37;;;2.77;;
82396;SDS011;72034;51.426;7.534;2024-02-26T03:55:10;3.17;;;2.70;;
82396;SDS011;72034;51.426;7.534;2024-02-26T03:57:42;5.80;;;2.97;;
82396;SDS011;72034;51.426;7.534;2024-02-26T04:00:28;3.60;;;3.08;;
82396;SDS011;72034;51.426;7.534;2024-02-26T04:02:59;7.57;;;3.10;;
82396;SDS011;72034;51.426;7.534;2024-02-26T04:05:25;5.20;;;2.77;;
82396;SDS011;72034;51.426;7.534;2024-02-26T04:08:08;3.40;;;2.70;;
82396;SDS011;72034;51.426;7.534;2024-02-26T04:10:50;4.85;;;2.83;;
82396;SDS011;72034;51.426;7.534;2024-02-26T04:13:38;3.57;;;2.53;;
82396;SDS011;72034;51.426;7.534;2024-02-26T04:16:06;3.13;;;2.60;;
82396;SDS011;72034;51.426;7.534;2024-02-26T04:19:01;3.70;;;2.40;;
82396;SDS011;72034;51.426;7.534;2024-02-26T04:21:40;3.87;;;2.93;;
82396;SDS011;72034;51.426;7.534;2024-02-26T04:24:22;2.40;;;2.20;;
82396;SDS011;72034;51.426;7.534;2024-02-26T04:26:58;3.50;;;2.73;;
82396;SDS011;72034;51.426;7.534;2024-02-26T04:29:35;3.97;;;2.57;;
82396;SDS011;72034;51.426;7.534;2024-02-26T04:32:13;3.93;;;2.70;;
82396;SDS011;72034;51.426;7.534;2024-02-26T04:37:39;4.40;;;3.00;;
82396;SDS011;72034;51.426;7.534;2024-02-26T04:40:18;4.77;;;3.00;;
82396;SDS011;72034;51.426;7.534;2024-02-26T04:43:07;3.00;;;2.75;;
82396;SDS011;72034;51.426;7.534;2024-02-26T04:45:36;4.03;;;2.90;;
82396;SDS011;72034;51.426;7.534;2024-02-26T04:48:30;6.20;;;2.80;;
82396;SDS011;72034;51.426;7.534;2024-02-26T04:51:17;6.82;;;3.17;;
82396;SDS011;72034;51.426;7.534;2024-02-26T04:53:53;2.73;;;2.40;;
82396;SDS011;72034;51.426;7.534;2024-02-26T04:56:27;2.90;;;2.60;;
82396;SDS011;72034;51.426;7.534;2024-02-26T04:59:20;4.87;;;3.10;;
82396;SDS011;72034;51.426;7.534;2024-02-26T05:01:49;2.80;;;2.47;;
82396;SDS011;72034;51.426;7.534;2024-02-26T05:04:23;3.37;;;2.87;;
82396;SDS011;72034;51.426;7.534;2024-02-26T05:07:16;3.43;;;2.20;;
82396;SDS011;72034;51.426;7.534;2024-02-26T05:09:44;3.77;;;2.40;;
82396;SDS011;72034;51.426;7.534;2024-02-26T05:12:21;3.93;;;2.47;;
82396;SDS011;72034;51.426;7.534;2024-02-26T05:14:49;2.53;;;2.33;;
82396;SDS011;72034;51.426;7.534;2024-02-26T05:17:32;2.53;;;2.33;;
82396;SDS011;72034;51.426;7.534;2024-02-26T05:20:22;3.90;;;2.57;;
82396;SDS011;72034;51.426;7.534;2024-02-26T05:22:56;2.83;;;2.53;;
82396;SDS011;72034;51.426;7.534;2024-02-26T05:25:35;4.50;;;2.60;;
82396;SDS011;72034;51.426;7.534;2024-02-26T05:28:07;2.72;;;2.53;;
82396;SDS011;72034;51.426;7.534;2024-02-26T05:30:36;5.55;;;2.65;;
82396;SDS011;72034;51.426;7.534;2024-02-26T05:33:20;3.70;;;2.73;;
82396;SDS011;72034;51.426;7.534;2024-02-26T05:35:54;4.23;;;3.00;;
82396;SDS011;72034;51.426;7.534;2024-02-26T05:38:29;3.80;;;2.90;;
82396;SDS011;72034;51.426;7.534;2024-02-26T05:41:11;4.50;;;3.33;;
82396;SDS011;72034;51.426;7.534;2024-02-26T05:44:00;4.40;;;3.40;;
82396;SDS011;72034;51.426;7.534;2024-02-26T05:46:44;6.82;;;3.75;;
82396;SDS011;72034;51.426;7.534;2024-02-26T05:49:19;5.63;;;3.60;;
82396;SDS011;72034;51.426;7.534;2024-02-26T05:51:50;5.13;;;3.17;;
82396;SDS011;72034;51.426;7.534;2024-02-26T05:54:16;5.00;;;3.50;;
82396;SDS011;72034;51.426;7.534;2024-02-26T05:56:51;5.27;;;3.67;;
82396;SDS011;72034;51.426;7.534;2024-02-26T05:59:20;4.50;;;3.07;;
82396;SDS011;72034;51.426;7.534;2024-02-26T06:01:51;4.00;;;3.07;;
82396;SDS011;72034;51.426;7.534;2024-02-26T06:04:25;4.30;;;3.50;;
82396;SDS011;72034;51.426;7.534;2024-02-26T06:07:01;5.13;;;3.20;;
82396;SDS011;72034;51.426;7.534;2024-02-26T06:09:32;4.37;;;3.10;;
82396;SDS011;72034;51.426;7.534;2024-02-26T06:11:58;5.53;;;3.47;;
82396;SDS011;72034;51.426;7.534;2024-02-26T06:14:29;6.23;;;3.40;;
82396;SDS011;72034;51.426;7.534;2024-02-26T06:16:58;3.87;;;2.90;;
82396;SDS011;72034;51.426;7.534;2024-02-26T06:19:26;5.00;;;3.50;;
82396;SDS011;72034;51.426;7.534;2024-02-26T06:21:59;10.13;;;3.30;;
82396;SDS011;72034;51.426;7.534;2024-02-26T06:24:33;3.83;;;3.00;;
82396;SDS011;72034;51.426;7.534;2024-02-26T06:27:07;4.53;;;3.17;;
82396;SDS011;72034;51.426;7.534;2024-02-26T06:29:45;5.37;;;3.40;;
82396;SDS011;72034;51.426;7.534;2024-02-26T06:32:24;5.23;;;3.50;;
82396;SDS011;72034;51.426;7.534;2024-02-26T06:34:52;4.47;;;3.50;;
82396;SDS011;72034;51.426;7.534;2024-02-26T06:37:32;5.90;;;3.10;;
82396;SDS011;72034;51.426;7.534;2024-02-26T06:40:19;5.03;;;3.67;;
82396;SDS011;72034;51.426;7.534;2024-02-26T06:42:56;8.93;;;4.03;;
82396;SDS011;72034;51.426;7.534;2024-02-26T06:45:30;3.90;;;3.50;;
82396;SDS011;72034;51.426;7.534;2024-02-26T06:48:01;4.70;;;3.40;;
82396;SDS011;72034;51.426;7.534;2024-02-26T06:50:31;4.33;;;3.33;;
82396;SDS011;72034;51.426;7.534;2024-02-26T06:53:12;4.83;;;3.70;;
82396;SDS011;72034;51.426;7.534;2024-02-26T06:55:45;3.93;;;3.53;;
82396;SDS011;72034;51.426;7.534;2024-02-26T06:58:22;4.97;;;4.00;;
82396;SDS011;72034;51.426;7.534;2024-02-26T07:01:15;8.23;;;4.00;;
82396;SDS011;72034;51.426;7.534;2024-02-26T07:04:12;6.37;;;4.40;;
82396;SDS011;72034;51.426;7.534;2024-02-26T07:06:45;5.53;;;4.30;;
82396;SDS011;72034;51.426;7.534;2024-02-26T07:09:15;5.13;;;3.67;;
82396;SDS011;72034;51.426;7.534;2024-02-26T07:11:43;7.73;;;3.77;;
82396;SDS011;72034;51.426;7.534;2024-02-26T07:14:23;5.80;;;4.13;;
82396;SDS011;72034;51.426;7.534;2024-02-26T07:16:51;7.50;;;4.03;;
82396;SDS011;72034;51.426;7.534;2024-02-26T07:19:32;8.53;;;4.37;;
82396;SDS011;72034;51.426;7.534;2024-02-26T07:22:02;6.87;;;4.53;;
82396;SDS011;72034;51.426;7.534;2024-02-26T07:24:43;4.30;;;3.70;;
82396;SDS011;72034;51.426;7.534;2024-02-26T07:27:11;6.13;;;3.60;;
82396;SDS011;72034;51.426;7.534;2024-02-26T07:29:45;6.97;;;3.50;;
82396;SDS011;72034;51.426;7.534;2024-02-26T07:35:06;5.37;;;4.30;;
82396;SDS011;72034;51.426;7.534;2024-02-26T07:37:51;5.63;;;4.17;;
82396;SDS011;72034;51.426;7.534;2024-02-26T07:40:26;4.93;;;3.80;;
82396;SDS011;72034;51.426;7.534;2024-02-26T07:43:20;5.07;;;4.03;;
82396;SDS011;72034;51.426;7.534;2024-02-26T07:45:48;4.03;;;3.43;;
82396;SDS011;72034;51.426;7.534;2024-02-26T07:48:20;4.37;;;3.97;;
82396;SDS011;72034;51.426;7.534;2024-02-26T07:50:53;4.30;;;3.60;;
82396;SDS011;72034;51.426;7.534;2024-02-26T07:53:35;5.10;;;3.47;;
82396;SDS011;72034;51.426;7.534;2024-02-26T07:56:02;5.23;;;3.87;;
82396;SDS011;72034;51.426;7.534;2024-02-26T07:58:28;8.97;;;3.90;;
82396;SDS011;72034;51.426;7.534;2024-02-26T08:01:05;3.50;;;3.20;;
82396;SDS011;72034;51.426;7.534;2024-02-26T08:03:37;3.75;;;3.38;;
82396;SDS011;72034;51.426;7.534;2024-02-26T08:06:18;4.18;;;3.60;;
82396;SDS011;72034;51.426;7.534;2024-02-26T08:08:46;5.03;;;3.77;;
82396;SDS011;72034;51.426;7.534;2024-02-26T08:11:32;5.20;;;4.27;;
82396;SDS011;72034;51.426;7.534;2024-02-26T08:14:13;5.05;;;4.10;;
82396;SDS011;72034;51.426;7.534;2024-02-26T08:16:52;5.50;;;3.70;;
82396;SDS011;72034;51.426;7.534;2024-02-26T08:19:23;4.40;;;3.97;;
82396;SDS011;72034;51.426;7.534;2024-02-26T08:22:09;5.75;;;4.30;;
82396;SDS011;72034;51.426;7.534;2024-02-26T08:25:01;5.77;;;3.83;;
82396;SDS011;72034;51.426;7.534;2024-02-26T08:27:47;5.77;;;4.27;;
82396;SDS011;72034;51.426;7.534;2024-02-26T08:30:16;6.03;;;3.93;;
82396;SDS011;72034;51.426;7.534;2024-02-26T08:32:52;4.40;;;3.83;;
82396;SDS011;72034;51.426;7.534;2024-02-26T08:35:27;5.17;;;4.00;;
82396;SDS011;72034;51.426;7.534;2024-02-26T08:37:56;6.60;;;4.93;;
82396;SDS011;72034;51.426;7.534;2024-02-26T08:40:32;5.90;;;4.80;;
82396;SDS011;72034;51.426;7.534;2024-02-26T08:43:33;6.17;;;4.63;;
82396;SDS011;72034;51.426;7.534;2024-02-26T08:46:09;5.40;;;4.83;;
82396;SDS011;72034;51.426;7.534;2024-02-26T08:48:40;7.63;;;4.93;;
82396;SDS011;72034;51.426;7.534;2024-02-26T08:51:24;5.30;;;4.80;;
82396;SDS011;72034;51.426;7.534;2024-02-26T08:54:06;6.80;;;5.73;;
82396;SDS011;72034;51.426;7.534;2024-02-26T08:56:55;6.17;;;5.40;;
82396;SDS011;72034;51.426;7.534;2024-02-26T08:59:26;5.50;;;4.90;;
82396;SDS011;72034;51.426;7.534;2024-02-26T09:02:00;7.27;;;5.03;;
82396;SDS011;72034;51.426;7.534;2024-02-26T09:04:33;9.20;;;5.50;;
82396;SDS011;72034;51.426;7.534;2024-02-26T09:07:26;6.03;;;4.80;;
82396;SDS011;72034;51.426;7.534;2024-02-26T09:10:02;5.00;;;4.50;;
82396;SDS011;72034;51.426;7.534;2024-02-26T09:12:45;4.67;;;4.13;;
82396;SDS011;72034;51.426;7.534;2024-02-26T09:15:20;6.03;;;4.30;;
82396;SDS011;72034;51.426;7.534;2024-02-26T09:17:54;6.65;;;5.45;;
82396;SDS011;72034;51.426;7.534;2024-02-26T09:20:25;7.30;;;4.88;;
82396;SDS011;72034;51.426;7.534;2024-02-26T09:22:51;5.00;;;4.50;;
82396;SDS011;72034;51.426;7.534;2024-02-26T09:25:30;5.85;;;4.68;;
82396;SDS011;72034;51.426;7.534;2024-02-26T09:28:01;5.50;;;4.93;;
82396;SDS011;72034;51.426;7.534;2024-02-26T09:30:30;6.45;;;4.97;;
82396;SDS011;72034;51.426;7.534;2024-02-26T09:32:58;5.80;;;4.88;;
82396;SDS011;72034;51.426;7.534;2024-02-26T09:35:34;6.50;;;5.70;;
82396;SDS011;72034;51.426;7.534;2024-02-26T09:38:02;6.18;;;5.43;;
82396;SDS011;72034;51.426;7.534;2024-02-26T09:40:32;7.05;;;5.90;;
82396;SDS011;72034;51.426;7.534;2024-02-26T09:43:22;7.07;;;5.13;;
82396;SDS011;72034;51.426;7.534;2024-02-26T09:46:01;5.88;;;5.15;;
82396;SDS011;72034;51.426;7.534;2024-02-26T09:48:34;11.02;;;5.63;;
82396;SDS011;72034;51.426;7.534;2024-02-26T09:51:04;6.93;;;5.13;;
82396;SDS011;72034;51.426;7.534;2024-02-26T09:56:15;11.25;;;8.30;;
82396;SDS011;72034;51.426;7.534;2024-02-26T09:58:43;7.80;;;6.45;;
82396;SDS011;72034;51.426;7.534;2024-02-26T10:01:17;13.95;;;8.35;;
82396;SDS011;72034;51.426;7.534;2024-02-26T10:03:49;7.53;;;6.70;;
82396;SDS011;72034;51.426;7.534;2024-02-26T10:06:26;7.45;;;5.53;;
82396;SDS011;72034;51.426;7.534;2024-02-26T10:09:03;8.65;;;6.47;;
82396;SDS011;72034;51.426;7.534;2024-02-26T10:11:34;8.77;;;5.78;;
82396;SDS011;72034;51.426;7.534;2024-02-26T10:14:03;6.90;;;5.55;;
82396;SDS011;72034;51.426;7.534;2024-02-26T10:16:31;8.27;;;5.50;;
82396;SDS011;72034;51.426;7.534;2024-02-26T10:19:00;6.35;;;5.28;;
82396;SDS011;72034;51.426;7.534;2024-02-26T10:24:01;10.02;;;6.32;;
82396;SDS011;72034;51.426;7.534;2024-02-26T10:26:30;8.13;;;5.60;;
82396;SDS011;72034;51.426;7.534;2024-02-26T10:28:59;7.45;;;6.00;;
82396;SDS011;72034;51.426;7.534;2024-02-26T10:31:30;7.43;;;6.00;;
82396;SDS011;72034;51.426;7.534;2024-02-26T10:33:58;7.05;;;5.88;;
82396;SDS011;72034;51.426;7.534;2024-02-26T10:36:24;8.60;;;6.43;;
82396;SDS011;72034;51.426;7.534;2024-02-26T10:38:54;7.53;;;6.22;;
82396;SDS011;72034;51.426;7.534;2024-02-26T10:41:27;8.00;;;6.32;;
82396;SDS011;72034;51.426;7.534;2024-02-26T10:44:04;11.85;;;7.20;;
82396;SDS011;72034;51.426;7.534;2024-02-26T10:46:47;9.68;;;6.30;;
82396;SDS011;72034;51.426;7.534;2024-02-26T10:49:18;10.02;;;7.35;;
82396;SDS011;72034;51.426;7.534;2024-02-26T10:51:54;8.13;;;6.32;;
82396;SDS011;72034;51.426;7.534;2024-02-26T10:54:25;8.15;;;7.03;;
82396;SDS011;72034;51.426;7.534;2024-02-26T10:56:52;7.53;;;6.72;;
82396;SDS011;72034;51.426;7.534;2024-02-26T10:59:21;10.68;;;7.22;;
82396;SDS011;72034;51.426;7.534;2024-02-26T11:01:50;10.43;;;7.50;;
82396;SDS011;72034;51.426;7.534;2024-02-26T11:04:22;9.50;;;7.70;;
82396;SDS011;72034;51.426;7.534;2024-02-26T11:07:03;8.88;;;7.63;;
82396;SDS011;72034;51.426;7.534;2024-02-26T11:09:36;11.15;;;8.48;;
82396;SDS011;72034;51.426;7.534;2024-02-26T11:12:11;11.45;;;8.20;;
82396;SDS011;72034;51.426;7.534;2024-02-26T11:14:40;10.52;;;9.15;;
82396;SDS011;72034;51.426;7.534;2024-02-26T11:17:18;12.68;;;10.52;;
82396;SDS011;72034;51.426;7.534;2024-02-26T11:19:51;14.98;;;11.02;;
82396;SDS011;72034;51.426;7.534;2024-02-26T11:22:19;12.85;;;10.73;;
82396;SDS011;72034;51.426;7.534;2024-02-26T11:24:55;14.13;;;10.68;;
82396;SDS011;72034;51.426;7.534;2024-02-26T11:27:30;15.57;;;11.95;;
82396;SDS011;72034;51.426;7.534;2024-02-26T11:30:00;13.45;;;11.38;;
82396;SDS011;72034;51.426;7.534;2024-02-26T11:32:38;13.32;;;10.38;;
82396;SDS011;72034;51.426;7.534;2024-02-26T11:35:13;13.48;;;9.70;;
82396;SDS011;72034;51.426;7.534;2024-02-26T11:37:51;12.27;;;9.65;;
82396;SDS011;72034;51.426;7.534;2024-02-26T11:40:43;11.88;;;9.52;;
82396;SDS011;72034;51.426;7.534;2024-02-26T11:43:17;11.50;;;8.77;;
82396;SDS011;72034;51.426;7.534;2024-02-26T11:45:48;11.25;;;9.60;;
82396;SDS011;72034;51.426;7.534;2024-02-26T11:48:28;12.43;;;9.40;;
82396;SDS011;72034;51.426;7.534;2024-02-26T11:51:32;10.15;;;8.23;;
82396;SDS011;72034;51.426;7.534;2024-02-26T11:54:05;10.65;;;8.23;;
82396;SDS011;72034;51.426;7.534;2024-02-26T11:56:33;11.52;;;8.77;;
82396;SDS011;72034;51.426;7.534;2024-02-26T11:59:11;11.65;;;7.90;;
82396;SDS011;72034;51.426;7.534;2024-02-26T12:06:55;8.18;;;7.20;;
82396;SDS011;72034;51.426;7.534;2024-02-26T12:09:43;7.93;;;6.90;;
82396;SDS011;72034;51.426;7.534;2024-02-26T12:12:18;11.57;;;8.00;;
82396;SDS011;72034;51.426;7.534;2024-02-26T12:14:56;10.23;;;7.90;;
82396;SDS011;72034;51.426;7.534;2024-02-26T12:17:25;11.63;;;7.35;;
82396;SDS011;72034;51.426;7.534;2024-02-26T12:19:58;7.15;;;6.22;;
82396;SDS011;72034;51.426;7.534;2024-02-26T12:23:01;6.93;;;6.22;;
82396;SDS011;72034;51.426;7.534;2024-02-26T12:25:32;6.32;;;5.65;;
82396;SDS011;72034;51.426;7.534;2024-02-26T12:28:04;7.18;;;5.47;;
82396;SDS011;72034;51.426;7.534;2024-02-26T12:30:35;7.32;;;5.65;;
82396;SDS011;72034;51.426;7.534;2024-02-26T12:33:14;6.85;;;5.30;;
82396;SDS011;72034;51.426;7.534;2024-02-26T12:35:43;7.72;;;6.65;;
82396;SDS011;72034;51.426;7.534;2024-02-26T12:38:26;6.45;;;5.80;;
82396;SDS011;72034;51.426;7.534;2024-02-26T12:41:06;7.97;;;6.18;;
82396;SDS011;72034;51.426;7.534;2024-02-26T12:43:42;7.60;;;6.32;;
82396;SDS011;72034;51.426;7.534;2024-02-26T12:46:12;7.05;;;6.35;;
82396;SDS011;72034;51.426;7.534;2024-02-26T12:48:42;9.65;;;6.72;;
82396;SDS011;72034;51.426;7.534;2024-02-26T12:51:10;10.23;;;6.85;;
82396;SDS011;72034;51.426;7.534;2024-02-26T12:53:43;8.27;;;7.20;;
82396;SDS011;72034;51.426;7.534;2024-02-26T12:56:21;8.75;;;7.50;;
82396;SDS011;72034;51.426;7.534;2024-02-26T12:58:50;8.10;;;7.15;;
82396;SDS011;72034;51.426;7.534;2024-02-26T13:01:16;8.15;;;7.13;;
82396;SDS011;72034;51.426;7.534;2024-02-26T13:03:51;9.75;;;8.00;;
82396;SDS011;72034;51.426;7.534;2024-02-26T13:06:20;9.05;;;7.95;;
82396;SDS011;72034;51.426;7.534;2024-02-26T13:08:47;14.65;;;8.73;;
82396;SDS011;72034;51.426;7.534;2024-02-26T13:11:13;12.13;;;8.73;;
82396;SDS011;72034;51.426;7.534;2024-02-26T13:13:39;9.88;;;8.48;;
82396;SDS011;72034;51.426;7.534;2024-02-26T13:16:06;11.27;;;8.90;;
82396;SDS011;72034;51.426;7.534;2024-02-26T13:18:36;13.55;;;8.77;;
82396;SDS011;72034;51.426;7.534;2024-02-26T13:21:09;9.48;;;8.15;;
82396;SDS011;72034;51.426;7.534;2024-02-26T13:23:54;9.48;;;7.13;;
82396;SDS011;72034;51.426;7.534;2024-02-26T13:26:25;9.57;;;8.13;;
82396;SDS011;72034;51.426;7.534;2024-02-26T13:29:02;11.57;;;7.70;;
82396;SDS011;72034;51.426;7.534;2024-02-26T13:31:41;8.90;;;7.70;;
82396;SDS011;72034;51.426;7.534;2024-02-26T13:34:25;9.48;;;7.97;;
82396;SDS011;72034;51.426;7.534;2024-02-26T13:37:00;12.63;;;7.82;;
82396;SDS011;72034;51.426;7.534;2024-02-26T13:39:46;8.77;;;7.53;;
82396;SDS011;72034;51.426;7.534;2024-02-26T13:42:18;8.20;;;7.28;;
82396;SDS011;72034;51.426;7.534;2024-02-26T13:44:47;7.53;;;6.72;;
82396;SDS011;72034;51.426;7.534;2024-02-26T13:47:29;9.25;;;6.90;;
82396;SDS011;72034;51.426;7.534;2024-02-26T13:49:57;7.45;;;6.60;;
82396;SDS011;72034;51.426;7.534;2024-02-26T13:52:23;6.95;;;6.07;;
82396;SDS011;72034;51.426;7.534;2024-02-26T13:54:52;7.63;;;6.07;;
82396;SDS011;72034;51.426;7.534;2024-02-26T13:57:27;7.43;;;6.47;;
82396;SDS011;72034;51.426;7.534;2024-02-26T13:59:56;8.55;;;6.90;;
82396;SDS011;72034;51.426;7.534;2024-02-26T14:02:24;8.80;;;6.43;;
82396;SDS011;72034;51.426;7.534;2024-02-26T14:04:57;7.78;;;7.03;;
82396;SDS011;72034;51.426;7.534;2024-02-26T14:07:28;9.45;;;6.70;;
82396;SDS011;72034;51.426;7.534;2024-02-26T14:10:13;9.05;;;7.03;;
82396;SDS011;72034;51.426;7.534;2024-02-26T14:12:39;6.88;;;6.18;;
82396;SDS011;72034;51.426;7.534;2024-02-26T14:15:08;8.63;;;6.38;;
82396;SDS011;72034;51.426;7.534;2024-02-26T14:17:37;7.60;;;6.53;;
82396;SDS011;72034;51.426;7.534;2024-02-26T14:20:20;8.88;;;7.07;;
82396;SDS011;72034;51.426;7.534;2024-02-26T14:22:51;9.13;;;6.93;;
82396;SDS011;72034;51.426;7.534;2024-02-26T14:25:24;9.63;;;7.35;;
82396;SDS011;72034;51.426;7.534;2024-02-26T14:27:55;10.20;;;6.60;;
82396;SDS011;72034;51.426;7.534;2024-02-26T14:30:23;8.90;;;7.53;;
82396;SDS011;72034;51.426;7.534;2024-02-26T14:33:00;10.77;;;8.77;;
82396;SDS011;72034;51.426;7.534;2024-02-26T14:35:31;10.55;;;8.00;;
82396;SDS011;72034;51.426;7.534;2024-02-26T14:38:01;10.20;;;8.80;;
82396;SDS011;72034;51.426;7.534;2024-02-26T14:40:32;10.23;;;7.63;;
82396;SDS011;72034;51.426;7.534;2024-02-26T14:42:57;8.45;;;7.40;;
82396;SDS011;72034;51.426;7.534;2024-02-26T14:45:27;10.05;;;7.97;;
82396;SDS011;72034;51.426;7.534;2024-02-26T14:48:02;12.43;;;9.52;;
82396;SDS011;72034;51.426;7.534;2024-02-26T14:50:33;9.70;;;8.20;;
82396;SDS011;72034;51.426;7.534;2024-02-26T14:52:59;9.80;;;7.20;;
82396;SDS011;72034;51.426;7.534;2024-02-26T14:55:27;8.55;;;7.65;;
82396;SDS011;72034;51.426;7.534;2024-02-26T14:57:52;10.43;;;7.95;;
82396;SDS011;72034;51.426;7.534;2024-02-26T15:00:26;8.32;;;7.50;;
82396;SDS011;72034;51.426;7.534;2024-02-26T15:02:51;8.07;;;6.22;;
82396;SDS011;72034;51.426;7.534;2024-02-26T15:05:22;8.35;;;7.10;;
82396;SDS011;72034;51.426;7.534;2024-02-26T15:07:50;7.30;;;6.50;;
82396;SDS011;72034;51.426;7.534;2024-02-26T15:10:26;7.75;;;6.82;;
82396;SDS011;72034;51.426;7.534;2024-02-26T15:12:55;7.28;;;6.57;;
82396;SDS011;72034;51.426;7.534;2024-02-26T15:15:26;9.65;;;6.10;;
82396;SDS011;72034;51.426;7.534;2024-02-26T15:17:56;8.27;;;6.53;;
82396;SDS011;72034;51.426;7.534;2024-02-26T15:20:24;7.60;;;6.72;;
82396;SDS011;72034;51.426;7.534;2024-02-26T15:22:57;8.00;;;6.80;;
82396;SDS011;72034;51.426;7.534;2024-02-26T15:25:30;7.57;;;6.18;;
82396;SDS011;72034;51.426;7.534;2024-02-26T15:28:02;7.50;;;6.25;;
82396;SDS011;72034;51.426;7.534;2024-02-26T15:30:31;8.05;;;5.82;;
82396;SDS011;72034;51.426;7.534;2024-02-26T15:33:02;7.28;;;6.15;;
82396;SDS011;72034;51.426;7.534;2024-02-26T15:35:30;6.30;;;5.70;;
82396;SDS011;72034;51.426;7.534;2024-02-26T15:38:05;6.53;;;5.70;;
82396;SDS011;72034;51.426;7.534;2024-02-26T15:41:10;7.47;;;5.68;;
82396;SDS011;72034;51.426;7.534;2024-02-26T15:43:40;7.95;;;4.95;;
82396;SDS011;72034;51.426;7.534;2024-02-26T15:46:14;8.65;;;6.05;;